Angler Guide Weather for Barrie -
Barrie, Ontario Current Weather Conditions
Enter your "Place, State", US Zip Code or ICAO:  
Forecast Information Radar Information
Barrie, Ontario, Canada  Lat: 44.38N, Lon: 79.77W
ICAO Used: CYKZ
Current Conditions
Updated:
Sun & Moon Information:
Temp: N/A
Humidity: N/A
Wind Speed: N/A
Barometer: N/A
Dewpoint: N/A
Heat Index: N/A
Wind Chill: N/A
Civil Twilight: 7:09 AM EST
Moonrise: N/A EST Moon Phase:
Waning Crescent Moon
Waning Crescent Moon
Moonset: 1:03 PM EST
Sunrise: 7:42 AM EST
Sunset: 4:38 PM EST
Civil Twilight: 5:12 PM EST
Forecast for Barrie, ON:
(Forecast based on TAF for )
1241 PM EST MON NOV 06 2006
  
AFTERNOONEVENINGOVERNIGHT
PARTLY CLOUDYPARTLY CLOUDYPARTLY CLOUDY
Partly
Cloudy
Partly
Cloudy
Partly
Cloudy
TAF based forecast:
Dated: 1241 PM EST MON NOV 06 2006
Afternoon...Partly cloudy with winds from the south west at 9 mph. Then becoming partly cloudy with winds from the south at 6 mph.
Evening...Becoming partly cloudy with winds from the south at 6 mph.
Overnight...Partly cloudy with winds from the south at 6 mph.
Original Encoded TAF:
Dated: 1241 PM EST MON NOV 06 2006
2006/11/06 17:41
CYKZ 061741Z 061806 22008KT P6SM FEW060 BECMG 2224 19005KT=




Powered by Angler Guide.com
Copyright 2007, all rights reserved.